Time;durP1;ratioP1;P1;durP2;ratioP2;P2;SDS_P1;SDS_P2;PMS_P1;PMS_P2;Temp;Humidity;BMP_temperature;BMP_pressure;BME280_temperature;BME280_humidity;BME280_pressure;Samples;Min_cycle;Max_cycle;Signal;HPM_P1;HPM_P2
2023/09/07 00:02:29;;;;;;;12.38;7.05;;;10.90;99.90;;;;;;8198207;28;20134;-80
2023/09/07 00:06:30;;;;;;;9.48;7.45;;;10.80;99.90;;;;;;8197260;28;20051;-80
2023/09/07 00:10:35;;;;;;;10.07;7.88;;;10.70;99.90;;;;;;8184092;28;20051;-81
2023/09/07 00:14:35;;;;;;;12.00;8.27;;;10.70;99.90;;;;;;8184052;29;20419;-80
2023/09/07 00:18:36;;;;;;;13.43;8.93;;;10.80;99.90;;;;;;8195362;28;20034;-81
2023/09/07 00:22:38;;;;;;;10.93;7.88;;;10.80;99.90;;;;;;8193117;28;20122;-81
2023/09/07 00:26:38;;;;;;;12.98;8.35;;;10.70;99.90;;;;;;8180104;28;20479;-81
2023/09/07 00:30:39;;;;;;;13.77;8.30;;;10.60;99.90;;;;;;8180340;28;20048;-81
2023/09/07 00:34:39;;;;;;;11.48;8.15;;;10.50;99.90;;;;;;8197484;28;20257;-81
2023/09/07 00:38:41;;;;;;;8.95;7.07;;;10.40;99.90;;;;;;8204516;28;20610;-80
2023/09/07 00:42:41;;;;;;;11.32;7.47;;;10.30;99.90;;;;;;8189934;28;20027;-80
2023/09/07 00:46:44;;;;;;;10.35;7.53;;;10.30;99.90;;;;;;8198337;28;20070;-81
2023/09/07 00:50:45;;;;;;;11.38;7.63;;;10.20;99.90;;;;;;8202971;28;20036;-81
2023/09/07 00:54:45;;;;;;;12.70;8.13;;;10.30;99.90;;;;;;8191388;28;20530;-80
2023/09/07 00:58:46;;;;;;;10.23;7.78;;;10.50;99.90;;;;;;8177047;29;20032;-80
2023/09/07 01:02:47;;;;;;;7.53;6.72;;;10.50;99.90;;;;;;8196249;28;20031;-80
2023/09/07 01:06:55;;;;;;;11.30;6.63;;;10.40;99.90;;;;;;8197285;28;20023;-80
2023/09/07 01:10:56;;;;;;;9.15;6.75;;;10.30;99.90;;;;;;8199760;28;20440;-80
2023/09/07 01:14:58;;;;;;;10.40;6.75;;;10.40;99.90;;;;;;8191347;28;20047;-81
2023/09/07 01:18:59;;;;;;;9.27;6.82;;;10.30;99.90;;;;;;8188268;28;20054;-81
2023/09/07 01:23:01;;;;;;;11.20;6.75;;;10.20;99.90;;;;;;8219231;28;20023;-81
2023/09/07 01:27:04;;;;;;;9.15;7.30;;;10.20;99.90;;;;;;8210496;28;20063;-81
2023/09/07 01:31:06;;;;;;;10.43;7.95;;;10.10;99.90;;;;;;8204166;28;20020;-81
2023/09/07 01:35:09;;;;;;;10.52;7.40;;;10.00;99.90;;;;;;8211285;28;20123;-81
2023/09/07 01:39:11;;;;;;;9.65;7.75;;;10.00;99.90;;;;;;8197916;28;20477;-80
2023/09/07 01:43:11;;;;;;;11.60;8.43;;;9.90;99.90;;;;;;8209107;28;20034;-80
2023/09/07 01:47:12;;;;;;;12.18;8.95;;;9.80;99.90;;;;;;8204533;28;20070;-80
2023/09/07 01:51:12;;;;;;;10.05;7.78;;;9.90;99.90;;;;;;8201636;29;20102;-80
2023/09/07 01:55:13;;;;;;;9.98;7.47;;;9.90;99.90;;;;;;8211104;28;20023;-81
2023/09/07 01:59:13;;;;;;;8.98;7.35;;;9.80;99.90;;;;;;8205314;28;20031;-81
2023/09/07 02:03:14;;;;;;;10.25;7.55;;;9.80;99.90;;;;;;8199458;28;20095;-81
2023/09/07 02:07:15;;;;;;;10.25;6.85;;;9.80;99.90;;;;;;8209843;28;20031;-81
2023/09/07 02:11:15;;;;;;;14.07;7.35;;;9.80;99.90;;;;;;8239143;28;20091;-80
2023/09/07 02:15:16;;;;;;;10.57;7.55;;;9.80;99.90;;;;;;8201034;28;20510;-80
2023/09/07 02:19:16;;;;;;;9.27;7.57;;;9.70;99.90;;;;;;8195946;28;20399;-80
2023/09/07 02:23:17;;;;;;;10.63;7.80;;;9.60;99.90;;;;;;8177665;29;20074;-80
2023/09/07 02:27:17;;;;;;;11.13;7.53;;;9.50;99.90;;;;;;8192344;28;20035;-79
2023/09/07 02:31:18;;;;;;;9.30;6.45;;;9.60;99.90;;;;;;8202006;28;20035;-80
2023/09/07 02:35:18;;;;;;;11.25;7.22;;;9.50;99.90;;;;;;8176838;29;20693;-80
2023/09/07 02:39:19;;;;;;;9.90;7.07;;;9.40;99.90;;;;;;8186242;28;20082;-79
2023/09/07 02:43:20;;;;;;;10.63;7.13;;;9.30;99.90;;;;;;8199855;28;20028;-78
2023/09/07 02:47:21;;;;;;;14.52;7.78;;;9.30;99.90;;;;;;8205681;28;20123;-79
2023/09/07 02:51:22;;;;;;;10.20;7.93;;;9.30;99.90;;;;;;8178791;28;20528;-79
2023/09/07 02:55:22;;;;;;;12.40;8.70;;;9.30;99.90;;;;;;8200626;28;20039;-77
2023/09/07 02:59:23;;;;;;;11.57;9.07;;;9.50;99.90;;;;;;8177741;29;20573;-78
2023/09/07 03:03:24;;;;;;;13.10;8.50;;;9.70;99.90;;;;;;8175813;29;20032;-78
2023/09/07 03:07:24;;;;;;;11.75;8.65;;;9.70;99.90;;;;;;8204971;28;20051;-80
2023/09/07 03:11:25;;;;;;;11.90;8.00;;;9.60;99.90;;;;;;8190230;28;20626;-78
2023/09/07 03:15:27;;;;;;;11.15;8.05;;;9.60;99.90;;;;;;8191819;28;20059;-78
2023/09/07 03:19:27;;;;;;;10.02;7.95;;;9.60;99.90;;;;;;8206015;28;20042;-78
2023/09/07 03:23:30;;;;;;;14.00;8.80;;;9.50;99.90;;;;;;8199708;28;20122;-78
2023/09/07 03:27:31;;;;;;;12.20;8.77;;;9.50;99.90;;;;;;8186863;28;20694;-78
2023/09/07 03:31:31;;;;;;;14.38;8.27;;;9.50;99.90;;;;;;8199225;28;20047;-78
2023/09/07 03:35:32;;;;;;;12.73;8.10;;;9.30;99.90;;;;;;8209069;28;20578;-79
2023/09/07 03:39:33;;;;;;;13.88;8.77;;;9.30;99.90;;;;;;8192997;28;20035;-78
2023/09/07 03:43:33;;;;;;;14.82;9.57;;;9.20;99.90;;;;;;8187195;28;20024;-77
2023/09/07 03:47:34;;;;;;;15.13;9.77;;;9.30;99.90;;;;;;8179783;28;20102;-78
2023/09/07 03:51:34;;;;;;;12.52;9.38;;;9.30;99.90;;;;;;8209375;28;20063;-78
2023/09/07 03:55:42;;;;;;;14.57;8.68;;;9.30;99.90;;;;;;8193666;28;20121;-78
2023/09/07 03:59:43;;;;;;;11.57;8.20;;;9.20;99.90;;;;;;8196770;28;20028;-78
2023/09/07 04:03:43;;;;;;;13.38;7.45;;;9.20;99.90;;;;;;8195619;28;20031;-78
2023/09/07 04:07:44;;;;;;;11.15;7.95;;;9.00;99.90;;;;;;8198497;28;20030;-78
2023/09/07 04:11:44;;;;;;;12.73;8.30;;;8.90;99.90;;;;;;8201591;28;20027;-78
2023/09/07 04:15:45;;;;;;;13.77;8.60;;;9.00;99.90;;;;;;8199004;28;20039;-78
2023/09/07 04:19:46;;;;;;;13.30;9.73;;;8.90;99.90;;;;;;8205976;28;20117;-79
2023/09/07 04:23:46;;;;;;;14.25;8.80;;;9.00;99.90;;;;;;8192804;28;20036;-78
2023/09/07 04:27:47;;;;;;;11.13;8.40;;;9.00;99.90;;;;;;8182407;28;20487;-79
2023/09/07 04:31:47;;;;;;;12.55;8.30;;;9.00;99.90;;;;;;8209464;28;20012;-79
2023/09/07 04:35:48;;;;;;;11.93;8.10;;;8.90;99.90;;;;;;8180798;28;20087;-78
2023/09/07 04:39:52;;;;;;;10.32;7.45;;;8.90;99.90;;;;;;8202193;28;20038;-78
2023/09/07 04:43:53;;;;;;;13.25;7.95;;;8.90;99.90;;;;;;8216888;28;20115;-79
2023/09/07 04:47:53;;;;;;;14.75;9.07;;;8.80;99.90;;;;;;8190352;28;20407;-79
2023/09/07 04:51:54;;;;;;;11.98;8.27;;;8.70;99.90;;;;;;8202150;28;20023;-79
2023/09/07 04:55:55;;;;;;;13.43;9.25;;;8.70;99.90;;;;;;8202822;28;20035;-78
2023/09/07 04:59:55;;;;;;;13.07;9.18;;;8.70;99.90;;;;;;8203900;28;20032;-79
2023/09/07 05:03:56;;;;;;;15.65;9.60;;;8.80;99.90;;;;;;8205499;28;20024;-79
2023/09/07 05:07:56;;;;;;;12.50;9.30;;;8.80;99.90;;;;;;8202037;28;20023;-78
2023/09/07 05:11:57;;;;;;;14.25;10.10;;;8.90;99.90;;;;;;8196978;28;20027;-79
2023/09/07 05:16:00;;;;;;;18.83;10.35;;;9.00;99.90;;;;;;8201017;28;20031;-79
2023/09/07 05:20:00;;;;;;;20.38;11.02;;;9.20;99.90;;;;;;8200354;28;20530;-78
2023/09/07 05:24:01;;;;;;;15.88;9.60;;;9.40;99.90;;;;;;8191042;29;20032;-79
2023/09/07 05:28:02;;;;;;;11.85;9.60;;;9.40;99.90;;;;;;8215450;28;20027;-79
2023/09/07 05:32:02;;;;;;;14.90;9.40;;;9.50;99.90;;;;;;8218599;28;20027;-79
2023/09/07 05:36:03;;;;;;;12.43;9.85;;;9.60;99.90;;;;;;8203408;28;20035;-78
2023/09/07 05:40:04;;;;;;;12.40;9.38;;;9.80;99.90;;;;;;8218737;28;20039;-79
2023/09/07 05:44:05;;;;;;;12.98;9.02;;;10.10;99.90;;;;;;8219231;28;20027;-79
2023/09/07 05:48:06;;;;;;;11.75;9.30;;;10.10;99.90;;;;;;8192418;28;20086;-78
2023/09/07 05:52:07;;;;;;;11.75;8.60;;;10.20;99.90;;;;;;8218198;28;20023;-79
2023/09/07 05:56:08;;;;;;;11.75;9.32;;;10.30;99.90;;;;;;8189845;28;20039;-79
2023/09/07 06:00:09;;;;;;;13.23;9.43;;;10.50;99.90;;;;;;8219920;28;20028;-79
2023/09/07 06:04:10;;;;;;;11.90;9.23;;;10.60;99.90;;;;;;8200467;28;20407;-78
2023/09/07 06:08:10;;;;;;;14.27;9.55;;;10.80;99.90;;;;;;8222564;28;20030;-79
2023/09/07 06:12:11;;;;;;;11.38;8.90;;;10.80;99.90;;;;;;8216445;28;20314;-77
2023/09/07 06:16:11;;;;;;;12.15;8.55;;;11.00;99.90;;;;;;8201271;28;20078;-79
2023/09/07 06:20:12;;;;;;;11.40;9.30;;;11.30;99.90;;;;;;8220221;28;20090;-79
2023/09/07 06:24:14;;;;;;;9.23;7.75;;;11.40;99.90;;;;;;8226802;28;20039;-78
2023/09/07 06:28:15;;;;;;;12.32;8.32;;;11.50;99.90;;;;;;8187122;29;20487;-79
2023/09/07 06:32:15;;;;;;;11.82;8.82;;;11.60;99.90;;;;;;8206838;28;20035;-79
2023/09/07 06:36:16;;;;;;;11.45;9.05;;;11.70;99.90;;;;;;8196356;28;20046;-79
2023/09/07 06:40:17;;;;;;;13.95;10.45;;;11.80;99.90;;;;;;8207271;28;20042;-79
2023/09/07 06:44:18;;;;;;;12.02;9.70;;;12.10;99.90;;;;;;8206637;28;20032;-79
2023/09/07 06:48:18;;;;;;;13.85;10.23;;;12.30;99.90;;;;;;8193319;28;20033;-80
2023/09/07 06:52:19;;;;;;;17.10;12.48;;;12.50;99.90;;;;;;8200660;28;20429;-79
2023/09/07 06:56:19;;;;;;;18.75;12.20;;;12.80;99.90;;;;;;8204804;28;20027;-79
2023/09/07 07:00:20;;;;;;;14.80;12.30;;;13.20;99.90;;;;;;8210035;28;20031;-78
2023/09/07 07:04:21;;;;;;;13.32;10.55;;;14.00;99.90;;;;;;8209213;28;20031;-79
2023/09/07 07:08:22;;;;;;;14.35;11.85;;;13.90;99.90;;;;;;8210779;28;20027;-80
2023/09/07 07:12:23;;;;;;;14.75;10.82;;;14.20;99.90;;;;;;8211238;28;20019;-79
2023/09/07 07:16:23;;;;;;;16.10;11.10;;;14.60;99.90;;;;;;8204228;28;20028;-79
2023/09/07 07:20:24;;;;;;;14.90;11.25;;;14.80;99.90;;;;;;8209463;28;20037;-79
2023/09/07 07:24:24;;;;;;;13.88;10.50;;;15.10;99.90;;;;;;8189585;29;20035;-79
2023/09/07 07:28:25;;;;;;;12.52;9.85;;;15.30;99.90;;;;;;8209954;28;20518;-79
2023/09/07 07:32:26;;;;;;;11.07;8.15;;;15.50;99.90;;;;;;8189253;28;20059;-79
2023/09/07 07:36:26;;;;;;;10.85;9.32;;;15.70;99.90;;;;;;8212073;28;20047;-80
2023/09/07 07:40:27;;;;;;;13.25;9.93;;;15.80;99.90;;;;;;8211105;28;20023;-80
2023/09/07 07:44:28;;;;;;;10.70;9.02;;;16.20;99.90;;;;;;8209971;28;20031;-80
2023/09/07 07:48:29;;;;;;;11.05;9.30;;;16.60;99.90;;;;;;8203617;28;20110;-79
2023/09/07 07:52:30;;;;;;;11.93;10.05;;;17.00;99.90;;;;;;8188781;29;20015;-79
2023/09/07 07:56:30;;;;;;;12.25;8.60;;;17.30;99.90;;;;;;8198195;28;20038;-79
2023/09/07 08:00:31;;;;;;;9.93;8.25;;;17.70;99.90;;;;;;8209436;28;20019;-79
2023/09/07 08:04:32;;;;;;;11.50;8.50;;;18.10;99.90;;;;;;8193774;29;20031;-79
2023/09/07 08:08:32;;;;;;;8.32;7.53;;;19.20;99.90;;;;;;8195532;28;20098;-80
2023/09/07 08:12:33;;;;;;;7.80;6.85;;;19.90;99.90;;;;;;8197735;29;20027;-80
2023/09/07 08:16:33;;;;;;;8.50;6.97;;;20.30;99.90;;;;;;8215051;28;20487;-79
2023/09/07 08:20:34;;;;;;;9.32;6.80;;;20.40;99.90;;;;;;8205494;28;20028;-80
2023/09/07 08:24:35;;;;;;;8.13;7.10;;;20.70;99.90;;;;;;8216414;28;20295;-80
2023/09/07 08:28:36;;;;;;;8.85;6.20;;;21.40;99.90;;;;;;8195389;29;20023;-80
2023/09/07 08:32:37;;;;;;;7.38;6.47;;;22.30;99.90;;;;;;8201306;29;20033;-80
2023/09/07 08:36:38;;;;;;;6.70;6.00;;;22.60;99.90;;;;;;8195520;28;20570;-80
2023/09/07 08:40:41;;;;;;;9.10;6.35;;;22.80;99.90;;;;;;8193678;29;20043;-79
2023/09/07 08:44:46;;;;;;;9.43;6.47;;;22.70;99.90;;;;;;8193246;28;20264;-80
2023/09/07 08:48:48;;;;;;;9.07;6.05;;;23.30;99.90;;;;;;8211583;28;20026;-81
2023/09/07 08:52:52;;;;;;;7.38;5.97;;;23.30;99.90;;;;;;8205005;28;20384;-80
2023/09/07 08:56:52;;;;;;;7.30;5.80;;;23.50;99.90;;;;;;8209076;28;20112;-80
2023/09/07 09:00:56;;;;;;;7.88;6.22;;;24.00;99.90;;;;;;8187263;29;20059;-80
2023/09/07 09:04:57;;;;;;;8.38;6.35;;;24.30;99.90;;;;;;8218239;28;20034;-81
2023/09/07 09:08:58;;;;;;;7.00;6.30;;;24.60;99.90;;;;;;8201344;28;20633;-81
2023/09/07 09:13:01;;;;;;;6.75;5.70;;;24.50;99.90;;;;;;8218047;28;20050;-81
2023/09/07 09:17:02;;;;;;;7.63;6.22;;;24.20;99.90;;;;;;8214651;28;20495;-80
2023/09/07 09:21:03;;;;;;;7.82;6.80;;;24.40;99.90;;;;;;8216656;28;20202;-80
2023/09/07 09:25:05;;;;;;;8.48;5.97;;;24.90;99.90;;;;;;8193867;28;20023;-81
2023/09/07 09:29:05;;;;;;;6.60;6.00;;;25.00;99.90;;;;;;8206123;28;20019;-81
2023/09/07 09:33:07;;;;;;;7.60;6.03;;;24.80;99.90;;;;;;8210308;28;20023;-81
2023/09/07 09:37:14;;;;;;;7.05;5.90;;;25.30;99.90;;;;;;8204416;28;20443;-81
2023/09/07 09:41:18;;;;;;;6.00;5.38;;;25.30;99.90;;;;;;8202531;28;20073;-80
2023/09/07 09:45:20;;;;;;;8.55;6.22;;;25.50;99.90;;;;;;8195045;28;20023;-81
2023/09/07 09:49:21;;;;;;;9.32;6.28;;;25.50;99.90;;;;;;8208858;28;20028;-81
2023/09/07 09:53:23;;;;;;;17.20;6.13;;;25.70;99.90;;;;;;8194156;28;20047;-81
2023/09/07 09:57:24;;;;;;;6.10;5.50;;;26.00;99.90;;;;;;8208327;28;20028;-80
2023/09/07 10:01:25;;;;;;;6.82;5.70;;;26.10;99.90;;;;;;8207539;28;20023;-81
2023/09/07 10:05:26;;;;;;;8.60;6.10;;;26.30;99.90;;;;;;8209992;28;20031;-81
2023/09/07 10:09:36;;;;;;;6.75;5.78;;;26.30;99.90;;;;;;8213534;28;20047;-80
2023/09/07 10:13:37;;;;;;;5.93;5.32;;;26.30;99.90;;;;;;8216047;28;20028;-81
2023/09/07 10:17:37;;;;;;;10.63;9.50;;;26.60;99.90;;;;;;8212624;28;20023;-81
2023/09/07 10:21:40;;;;;;;6.78;5.70;;;27.00;99.90;;;;;;8197769;28;20407;-81
2023/09/07 10:25:40;;;;;;;9.40;5.60;;;27.90;99.90;;;;;;8195483;28;20099;-81
2023/09/07 10:29:46;;;;;;;9.15;5.82;;;28.70;99.90;;;;;;8204276;28;20400;-80
2023/09/07 10:33:47;;;;;;;7.22;6.03;;;29.20;99.90;;;;;;8207049;28;20443;-79
2023/09/07 10:37:47;;;;;;;8.50;5.75;;;29.30;99.90;;;;;;8196131;28;20039;-80
2023/09/07 10:41:48;;;;;;;6.35;5.53;;;29.60;99.90;;;;;;8202782;28;20090;-80
2023/09/07 10:45:49;;;;;;;6.57;5.80;;;29.30;99.90;;;;;;8206070;28;20030;-80
2023/09/07 10:49:50;;;;;;;7.97;6.15;;;30.20;99.90;;;;;;8203417;28;20024;-81
2023/09/07 10:53:50;;;;;;;8.13;6.28;;;30.80;99.90;;;;;;8201621;28;20639;-80
2023/09/07 10:57:51;;;;;;;9.35;5.32;;;31.30;99.90;;;;;;8166050;28;20032;-80
2023/09/07 11:01:52;;;;;;;8.20;6.07;;;31.60;99.90;;;;;;8202382;28;20213;-81
2023/09/07 11:05:59;;;;;;;8.10;5.57;;;30.60;99.90;;;;;;8191314;28;20019;-80
2023/09/07 11:10:00;;;;;;;8.73;5.75;;;31.50;99.90;;;;;;8195143;28;20222;-80
2023/09/07 11:14:05;;;;;;;8.38;5.60;;;31.10;99.90;;;;;;8181551;28;20115;-81
2023/09/07 11:18:06;;;;;;;8.30;5.70;;;32.10;99.90;;;;;;8186815;28;20042;-81
2023/09/07 11:22:10;;;;;;;6.97;5.35;;;32.80;99.90;;;;;;8204056;28;20027;-81
2023/09/07 11:26:11;;;;;;;16.67;6.65;;;33.50;99.90;;;;;;8193639;28;20035;-81
2023/09/07 11:30:11;;;;;;;6.60;6.00;;;33.50;99.40;;;;;;8186986;28;20077;-81
2023/09/07 11:34:15;;;;;;;8.23;5.65;;;33.50;98.70;;;;;;8186725;28;20082;-80
2023/09/07 11:38:16;;;;;;;9.27;5.45;;;33.10;96.90;;;;;;8191933;28;20028;-81
2023/09/07 11:42:17;;;;;;;17.55;6.47;;;32.90;99.90;;;;;;8196772;28;20026;-81
2023/09/07 11:46:18;;;;;;;9.27;6.35;;;32.40;98.50;;;;;;8186729;28;20055;-80
2023/09/07 11:50:18;;;;;;;5.97;5.38;;;31.30;99.90;;;;;;8199750;28;20094;-80
2023/09/07 11:54:19;;;;;;;6.25;5.57;;;31.90;99.50;;;;;;8209025;28;20027;-81
2023/09/07 11:58:19;;;;;;;8.93;6.10;;;32.00;99.90;;;;;;8187935;28;20402;-81
2023/09/07 12:02:21;;;;;;;6.30;5.50;;;31.30;99.90;;;;;;8183957;29;20019;-81
2023/09/07 12:06:23;;;;;;;6.68;5.57;;;32.10;99.90;;;;;;8206969;28;20047;-81
2023/09/07 12:10:23;;;;;;;8.07;5.03;;;31.80;99.90;;;;;;8208884;28;20078;-81
2023/09/07 12:14:24;;;;;;;6.40;5.63;;;31.70;99.90;;;;;;8216960;28;20472;-81
2023/09/07 12:18:24;;;;;;;6.85;5.70;;;32.20;99.10;;;;;;8201967;28;20030;-81
2023/09/07 12:22:25;;;;;;;5.72;5.10;;;32.60;97.70;;;;;;8198724;28;20090;-81
2023/09/07 12:26:25;;;;;;;7.05;5.95;;;31.90;99.90;;;;;;8172337;28;20059;-80
2023/09/07 12:30:26;;;;;;;8.30;5.50;;;32.30;98.20;;;;;;8200511;28;20027;-81
2023/09/07 12:34:27;;;;;;;6.50;5.90;;;32.90;98.00;;;;;;8207996;28;20030;-81
2023/09/07 12:38:29;;;;;;;7.05;5.53;;;33.50;97.00;;;;;;8201678;28;20039;-81
2023/09/07 12:42:29;;;;;;;7.43;5.85;;;33.20;95.90;;;;;;8187002;28;20023;-81
2023/09/07 12:46:31;;;;;;;9.15;5.80;;;33.70;95.20;;;;;;8174509;29;20056;-81
2023/09/07 12:50:31;;;;;;;11.88;5.97;;;33.90;94.90;;;;;;8204987;28;20019;-81
2023/09/07 12:54:32;;;;;;;7.18;5.35;;;34.50;94.00;;;;;;8206770;28;20411;-81
2023/09/07 12:58:33;;;;;;;6.63;5.45;;;34.10;96.10;;;;;;8206709;28;20171;-80
2023/09/07 13:02:33;;;;;;;9.18;5.80;;;33.10;94.70;;;;;;8187874;29;20023;-81
2023/09/07 13:06:34;;;;;;;6.50;5.90;;;31.90;97.80;;;;;;8197022;28;20419;-83
2023/09/07 13:10:34;;;;;;;7.57;5.97;;;32.20;97.90;;;;;;8208100;28;20042;-83
2023/09/07 13:14:35;;;;;;;6.80;5.93;;;33.00;96.20;;;;;;8196044;29;20030;-82
2023/09/07 13:18:35;;;;;;;9.75;5.68;;;32.30;98.70;;;;;;8210312;28;20034;-82
2023/09/07 13:22:36;;;;;;;8.80;5.43;;;33.80;95.80;;;;;;8183980;29;20135;-82
2023/09/07 13:26:37;;;;;;;7.32;5.45;;;33.30;97.20;;;;;;8205550;28;20027;-82
2023/09/07 13:30:37;;;;;;;6.07;5.45;;;35.30;94.50;;;;;;8206543;28;20106;-82
2023/09/07 13:34:38;;;;;;;6.75;5.57;;;36.30;91.80;;;;;;8168921;29;20027;-82
2023/09/07 13:38:41;;;;;;;6.72;5.65;;;35.50;92.60;;;;;;8190954;28;20044;-83
2023/09/07 13:42:42;;;;;;;6.68;5.70;;;35.00;92.50;;;;;;8182094;29;20050;-83
2023/09/07 13:46:44;;;;;;;11.45;5.72;;;35.10;91.70;;;;;;8192289;28;20500;-82
2023/09/07 13:50:44;;;;;;;9.25;5.80;;;34.50;92.20;;;;;;8188523;28;20034;-83
2023/09/07 13:54:45;;;;;;;6.32;5.43;;;34.60;92.70;;;;;;8198470;28;20031;-83
2023/09/07 13:58:46;;;;;;;9.50;6.05;;;34.50;93.30;;;;;;8174324;29;20503;-82
2023/09/07 14:02:46;;;;;;;7.10;5.47;;;34.70;91.30;;;;;;8174040;29;20058;-82
2023/09/07 14:06:47;;;;;;;6.55;5.93;;;35.90;88.90;;;;;;8204140;28;20131;-82
2023/09/07 14:10:47;;;;;;;6.65;5.95;;;35.00;91.30;;;;;;8208605;28;20550;-82
2023/09/07 14:14:49;;;;;;;7.63;5.55;;;34.80;89.30;;;;;;8192074;28;20031;-82
2023/09/07 14:18:49;;;;;;;6.93;5.93;;;35.70;90.00;;;;;;8194746;28;20035;-82
2023/09/07 14:22:50;;;;;;;6.15;5.50;;;37.00;85.50;;;;;;8193416;28;20502;-82
2023/09/07 14:26:51;;;;;;;8.75;6.20;;;36.30;85.30;;;;;;8165564;29;20106;-83
2023/09/07 14:30:53;;;;;;;8.82;6.00;;;35.30;90.50;;;;;;8169534;28;20027;-82
2023/09/07 14:34:54;;;;;;;7.68;6.22;;;33.90;90.30;;;;;;8179559;28;20036;-82
2023/09/07 14:38:54;;;;;;;9.50;6.22;;;33.50;92.10;;;;;;8181469;28;20126;-80
2023/09/07 14:42:57;;;;;;;6.65;5.95;;;34.20;90.50;;;;;;8190351;29;20027;-81
2023/09/07 14:46:57;;;;;;;10.10;5.82;;;34.60;88.80;;;;;;8199526;28;20070;-80
2023/09/07 14:50:58;;;;;;;8.38;5.28;;;34.70;87.50;;;;;;8164240;29;20019;-82
2023/09/07 14:54:59;;;;;;;6.35;5.75;;;33.20;90.60;;;;;;8187594;28;20061;-82
2023/09/07 14:59:00;;;;;;;5.78;5.15;;;33.90;91.30;;;;;;8195540;28;20079;-81
2023/09/07 15:03:01;;;;;;;6.78;5.82;;;33.80;91.00;;;;;;8185126;29;20039;-82
2023/09/07 15:07:01;;;;;;;7.28;5.80;;;31.40;92.50;;;;;;8197668;28;20118;-80
2023/09/07 15:11:02;;;;;;;8.55;6.00;;;29.00;97.00;;;;;;8188767;28;20031;-82
2023/09/07 15:15:03;;;;;;;8.75;6.00;;;27.50;99.60;;;;;;8177400;29;20039;-81
2023/09/07 15:19:04;;;;;;;8.43;6.18;;;26.90;99.90;;;;;;8171086;29;20036;-81
2023/09/07 15:23:04;;;;;;;6.93;6.10;;;26.50;99.90;;;;;;8191933;28;20039;-81
2023/09/07 15:27:12;;;;;;;8.25;6.45;;;26.40;99.90;;;;;;8193119;28;20030;-82
2023/09/07 15:31:13;;;;;;;7.57;5.78;;;26.20;99.90;;;;;;8177254;28;20019;-82
2023/09/07 15:35:13;;;;;;;10.27;6.45;;;26.70;99.90;;;;;;8194389;28;20486;-80
2023/09/07 15:39:14;;;;;;;8.45;5.60;;;28.00;99.90;;;;;;8175822;28;20035;-82
2023/09/07 15:43:15;;;;;;;8.48;5.90;;;29.20;98.80;;;;;;8190902;28;20492;-83
2023/09/07 15:47:15;;;;;;;7.90;5.85;;;30.00;97.90;;;;;;8180787;28;20063;-82
2023/09/07 15:51:16;;;;;;;6.35;5.75;;;30.50;96.60;;;;;;8191512;28;20086;-82
2023/09/07 15:55:20;;;;;;;9.02;6.35;;;30.20;97.80;;;;;;8177063;29;20094;-82
2023/09/07 15:59:20;;;;;;;6.80;5.65;;;29.10;98.70;;;;;;8168281;29;20035;-82
2023/09/07 16:03:21;;;;;;;8.70;5.50;;;27.70;99.90;;;;;;8175766;29;20404;-82
2023/09/07 16:07:21;;;;;;;5.70;5.10;;;26.80;99.90;;;;;;8200564;28;20024;-83
2023/09/07 16:11:22;;;;;;;7.32;5.97;;;26.30;99.90;;;;;;8187899;28;20031;-82
2023/09/07 16:15:23;;;;;;;7.43;5.38;;;25.90;99.90;;;;;;8191705;28;20027;-81
2023/09/07 16:19:23;;;;;;;6.88;5.30;;;25.60;99.90;;;;;;8172067;29;20034;-83
2023/09/07 16:23:24;;;;;;;6.57;5.35;;;25.40;99.90;;;;;;8200314;28;20082;-83
2023/09/07 16:27:24;;;;;;;8.05;5.80;;;25.30;99.90;;;;;;8193705;28;20025;-80
2023/09/07 16:31:25;;;;;;;7.07;5.50;;;25.20;99.90;;;;;;8196214;28;20020;-80
2023/09/07 16:35:25;;;;;;;6.63;5.20;;;25.10;99.90;;;;;;8188313;28;20039;-79
2023/09/07 16:39:26;;;;;;;11.68;5.63;;;25.00;99.90;;;;;;8178649;29;20043;-80
2023/09/07 16:43:27;;;;;;;8.23;5.38;;;24.60;99.90;;;;;;8180556;29;20046;-80
2023/09/07 16:47:27;;;;;;;7.70;5.03;;;24.50;99.90;;;;;;8183655;28;20485;-80
2023/09/07 16:51:28;;;;;;;7.40;5.57;;;24.30;99.90;;;;;;8190895;28;20341;-80
2023/09/07 16:55:28;;;;;;;6.28;5.28;;;24.00;99.90;;;;;;8178933;29;20116;-80
2023/09/07 16:59:29;;;;;;;7.75;5.15;;;23.70;99.90;;;;;;8196651;28;20039;-80
2023/09/07 17:03:29;;;;;;;8.30;5.00;;;23.40;99.90;;;;;;8188157;28;20512;-80
2023/09/07 17:07:30;;;;;;;7.75;4.95;;;23.20;99.90;;;;;;8192741;28;20402;-80
2023/09/07 17:11:30;;;;;;;8.63;5.25;;;23.00;99.90;;;;;;8196198;28;20035;-80
2023/09/07 17:15:31;;;;;;;8.95;5.25;;;22.70;99.90;;;;;;8210409;28;20038;-80
2023/09/07 17:19:31;;;;;;;7.40;5.07;;;22.50;99.90;;;;;;8211639;28;20047;-80
2023/09/07 17:23:32;;;;;;;10.32;4.95;;;22.20;99.90;;;;;;8186796;28;20036;-80
2023/09/07 17:27:32;;;;;;;7.80;5.55;;;21.90;99.90;;;;;;8175411;28;20024;-80
2023/09/07 17:31:33;;;;;;;9.25;5.47;;;21.60;99.90;;;;;;8192999;28;20063;-80
2023/09/07 17:35:37;;;;;;;13.68;5.90;;;21.20;99.90;;;;;;8179910;29;20032;-80
2023/09/07 17:39:37;;;;;;;22.73;6.18;;;20.90;99.90;;;;;;8179339;29;20046;-80
2023/09/07 17:43:39;;;;;;;24.50;6.68;;;20.70;99.90;;;;;;8207801;28;20023;-80
2023/09/07 17:47:40;;;;;;;13.23;7.13;;;20.60;99.90;;;;;;8195515;28;20055;-80
2023/09/07 17:51:40;;;;;;;10.73;6.40;;;20.20;99.90;;;;;;8181737;29;20034;-80
2023/09/07 17:55:41;;;;;;;9.85;6.40;;;20.00;99.90;;;;;;8189628;28;20023;-79
2023/09/07 17:59:41;;;;;;;13.35;6.85;;;19.70;99.90;;;;;;8193273;28;20168;-80
2023/09/07 18:03:42;;;;;;;13.25;6.70;;;19.50;99.90;;;;;;8200342;28;20042;-80
2023/09/07 18:07:43;;;;;;;7.50;6.65;;;19.30;99.90;;;;;;8204585;28;20480;-81
2023/09/07 18:11:46;;;;;;;9.82;6.93;;;19.10;99.90;;;;;;8189938;29;20503;-80
2023/09/07 18:15:47;;;;;;;7.43;6.63;;;18.90;99.90;;;;;;8194804;28;20078;-81
2023/09/07 18:19:49;;;;;;;8.50;6.10;;;18.90;99.90;;;;;;8188707;28;20032;-80
2023/09/07 18:23:50;;;;;;;8.32;6.32;;;18.70;99.90;;;;;;8198123;28;20501;-80
2023/09/07 18:27:51;;;;;;;13.57;6.47;;;18.60;99.90;;;;;;8208854;28;20713;-80
2023/09/07 18:31:51;;;;;;;11.63;5.90;;;18.50;99.90;;;;;;8209273;28;20030;-80
2023/09/07 18:36:02;;;;;;;8.25;5.72;;;18.40;99.90;;;;;;8199629;28;20061;-79
2023/09/07 18:40:03;;;;;;;8.55;5.88;;;18.30;99.90;;;;;;8205345;28;20046;-80
2023/09/07 18:44:04;;;;;;;6.95;5.70;;;18.20;99.90;;;;;;8184201;28;20636;-80
2023/09/07 18:48:05;;;;;;;7.75;5.68;;;18.20;99.90;;;;;;8183653;28;20042;-80
2023/09/07 18:52:05;;;;;;;9.00;5.75;;;18.10;99.90;;;;;;8175937;29;20524;-79
2023/09/07 18:56:07;;;;;;;7.95;5.97;;;18.00;99.90;;;;;;8203774;28;20040;-79
2023/09/07 19:00:08;;;;;;;7.60;6.20;;;17.90;99.90;;;;;;8195551;28;20027;-80
2023/09/07 19:04:11;;;;;;;12.35;6.20;;;17.50;99.90;;;;;;8199743;28;20023;-80
2023/09/07 19:08:12;;;;;;;8.13;6.45;;;17.30;99.90;;;;;;8201717;28;20043;-79
2023/09/07 19:12:13;;;;;;;10.02;7.35;;;17.10;99.90;;;;;;8190730;28;20412;-80
2023/09/07 19:16:13;;;;;;;11.90;8.63;;;17.00;99.90;;;;;;8195734;28;20023;-79
2023/09/07 19:20:15;;;;;;;10.05;7.22;;;16.90;99.90;;;;;;8191368;28;20125;-80
2023/09/07 19:24:16;;;;;;;11.02;8.25;;;16.80;99.90;;;;;;8184810;28;20035;-81
2023/09/07 19:28:17;;;;;;;11.55;8.02;;;16.60;99.90;;;;;;8171010;29;20032;-80
2023/09/07 19:32:19;;;;;;;12.38;8.45;;;16.30;99.90;;;;;;8162899;29;20069;-79
2023/09/07 19:36:20;;;;;;;10.02;7.90;;;16.10;99.90;;;;;;8174426;28;20034;-79
2023/09/07 19:40:21;;;;;;;14.98;8.75;;;15.90;99.90;;;;;;8185441;28;20028;-79
2023/09/07 19:44:23;;;;;;;14.35;8.55;;;15.80;99.90;;;;;;8188952;28;20503;-80
2023/09/07 19:48:23;;;;;;;10.70;7.53;;;15.70;99.90;;;;;;8188077;28;20028;-81
2023/09/07 19:52:24;;;;;;;12.07;7.82;;;15.60;99.90;;;;;;8187843;28;20050;-81
2023/09/07 19:56:26;;;;;;;12.30;8.60;;;15.60;99.90;;;;;;8186485;28;20489;-80
2023/09/07 20:00:26;;;;;;;12.35;8.73;;;15.50;99.90;;;;;;8185367;28;20455;-80
2023/09/07 20:04:29;;;;;;;10.32;8.63;;;15.40;99.90;;;;;;8183006;29;20036;-80
2023/09/07 20:08:29;;;;;;;11.18;9.07;;;15.60;99.90;;;;;;8197868;28;20023;-81
2023/09/07 20:12:30;;;;;;;12.13;8.82;;;15.60;99.90;;;;;;8203090;28;20059;-79
2023/09/07 20:16:30;;;;;;;15.75;9.27;;;15.50;99.90;;;;;;8205878;28;20024;-80
2023/09/07 20:20:31;;;;;;;11.18;8.90;;;15.40;99.90;;;;;;8205483;28;20032;-81
2023/09/07 20:24:31;;;;;;;12.45;8.60;;;15.20;99.90;;;;;;8186728;29;20059;-81
2023/09/07 20:28:32;;;;;;;10.57;8.32;;;15.20;99.90;;;;;;8193494;28;20074;-80
2023/09/07 20:32:32;;;;;;;14.80;8.68;;;15.20;99.90;;;;;;8214949;28;20031;-80
2023/09/07 20:36:33;;;;;;;17.40;9.45;;;15.00;99.90;;;;;;8208771;28;20035;-81
2023/09/07 20:40:33;;;;;;;10.45;8.60;;;14.90;99.90;;;;;;8188098;28;20106;-80
2023/09/07 20:44:34;;;;;;;11.70;8.93;;;14.70;99.90;;;;;;8201787;28;20395;-80
2023/09/07 20:48:35;;;;;;;10.18;8.43;;;14.60;99.90;;;;;;8220431;28;20019;-81